sensor_id;sensor_type;location;lat;lon;timestamp;P1;durP1;ratioP1;P2;durP2;ratioP2
2173;SDS011;1093;51.424;11.764;2024-01-30T00:00:08;14.70;;;9.47;;
2173;SDS011;1093;51.424;11.764;2024-01-30T00:02:38;11.53;;;10.13;;
2173;SDS011;1093;51.424;11.764;2024-01-30T00:05:14;11.73;;;8.30;;
2173;SDS011;1093;51.424;11.764;2024-01-30T00:07:48;16.50;;;10.13;;
2173;SDS011;1093;51.424;11.764;2024-01-30T00:10:22;18.63;;;7.80;;
2173;SDS011;1093;51.424;11.764;2024-01-30T00:13:05;18.13;;;10.00;;
2173;SDS011;1093;51.424;11.764;2024-01-30T00:16:19;12.90;;;9.23;;
2173;SDS011;1093;51.424;11.764;2024-01-30T00:18:50;14.80;;;9.30;;
2173;SDS011;1093;51.424;11.764;2024-01-30T00:21:26;13.77;;;9.60;;
2173;SDS011;1093;51.424;11.764;2024-01-30T00:26:42;12.20;;;9.23;;
2173;SDS011;1093;51.424;11.764;2024-01-30T00:29:10;14.67;;;10.00;;
2173;SDS011;1093;51.424;11.764;2024-01-30T00:31:47;12.40;;;9.40;;
2173;SDS011;1093;51.424;11.764;2024-01-30T00:34:23;13.30;;;9.90;;
2173;SDS011;1093;51.424;11.764;2024-01-30T00:36:50;11.03;;;9.27;;
2173;SDS011;1093;51.424;11.764;2024-01-30T00:39:30;13.83;;;9.23;;
2173;SDS011;1093;51.424;11.764;2024-01-30T00:41:57;10.47;;;8.60;;
2173;SDS011;1093;51.424;11.764;2024-01-30T00:44:34;18.20;;;10.20;;
2173;SDS011;1093;51.424;11.764;2024-01-30T00:47:03;12.13;;;10.00;;
2173;SDS011;1093;51.424;11.764;2024-01-30T00:49:41;11.50;;;8.90;;
2173;SDS011;1093;51.424;11.764;2024-01-30T00:52:08;12.10;;;8.93;;
2173;SDS011;1093;51.424;11.764;2024-01-30T00:54:39;13.83;;;9.20;;
2173;SDS011;1093;51.424;11.764;2024-01-30T00:57:11;14.83;;;8.90;;
2173;SDS011;1093;51.424;11.764;2024-01-30T00:59:38;14.40;;;9.90;;
2173;SDS011;1093;51.424;11.764;2024-01-30T01:02:09;12.50;;;9.50;;
2173;SDS011;1093;51.424;11.764;2024-01-30T01:04:38;18.20;;;9.43;;
2173;SDS011;1093;51.424;11.764;2024-01-30T01:07:12;12.43;;;9.93;;
2173;SDS011;1093;51.424;11.764;2024-01-30T01:09:47;19.13;;;11.30;;
2173;SDS011;1093;51.424;11.764;2024-01-30T01:12:15;17.20;;;10.13;;
2173;SDS011;1093;51.424;11.764;2024-01-30T01:14:50;17.97;;;11.63;;
2173;SDS011;1093;51.424;11.764;2024-01-30T01:17:20;15.50;;;10.97;;
2173;SDS011;1093;51.424;11.764;2024-01-30T01:19:49;14.23;;;10.03;;
2173;SDS011;1093;51.424;11.764;2024-01-30T01:22:16;15.80;;;10.43;;
2173;SDS011;1093;51.424;11.764;2024-01-30T01:24:48;15.60;;;9.30;;
2173;SDS011;1093;51.424;11.764;2024-01-30T01:27:24;18.70;;;10.13;;
2173;SDS011;1093;51.424;11.764;2024-01-30T01:29:51;19.60;;;11.37;;
2173;SDS011;1093;51.424;11.764;2024-01-30T01:32:46;16.03;;;10.87;;
2173;SDS011;1093;51.424;11.764;2024-01-30T01:35:20;19.20;;;11.13;;
2173;SDS011;1093;51.424;11.764;2024-01-30T01:37:59;12.17;;;10.10;;
2173;SDS011;1093;51.424;11.764;2024-01-30T01:40:31;15.60;;;10.07;;
2173;SDS011;1093;51.424;11.764;2024-01-30T01:43:02;15.20;;;11.57;;
2173;SDS011;1093;51.424;11.764;2024-01-30T01:45:34;17.57;;;10.33;;
2173;SDS011;1093;51.424;11.764;2024-01-30T01:48:05;17.30;;;10.83;;
2173;SDS011;1093;51.424;11.764;2024-01-30T01:50:36;10.87;;;9.10;;
2173;SDS011;1093;51.424;11.764;2024-01-30T01:53:07;15.13;;;10.30;;
2173;SDS011;1093;51.424;11.764;2024-01-30T01:55:38;17.43;;;10.63;;
2173;SDS011;1093;51.424;11.764;2024-01-30T01:58:06;13.50;;;9.50;;
2173;SDS011;1093;51.424;11.764;2024-01-30T02:00:47;15.33;;;10.50;;
2173;SDS011;1093;51.424;11.764;2024-01-30T02:03:18;14.40;;;10.37;;
2173;SDS011;1093;51.424;11.764;2024-01-30T02:06:04;12.20;;;9.23;;
2173;SDS011;1093;51.424;11.764;2024-01-30T02:08:37;18.53;;;10.97;;
2173;SDS011;1093;51.424;11.764;2024-01-30T02:11:18;10.47;;;8.70;;
2173;SDS011;1093;51.424;11.764;2024-01-30T02:14:03;15.90;;;10.30;;
2173;SDS011;1093;51.424;11.764;2024-01-30T02:17:00;15.10;;;10.37;;
2173;SDS011;1093;51.424;11.764;2024-01-30T02:19:47;15.43;;;10.50;;
2173;SDS011;1093;51.424;11.764;2024-01-30T02:22:27;15.23;;;10.20;;
2173;SDS011;1093;51.424;11.764;2024-01-30T02:24:58;14.30;;;10.00;;
2173;SDS011;1093;51.424;11.764;2024-01-30T02:27:58;13.07;;;10.23;;
2173;SDS011;1093;51.424;11.764;2024-01-30T02:33:15;16.13;;;9.73;;
2173;SDS011;1093;51.424;11.764;2024-01-30T02:35:50;15.17;;;10.20;;
2173;SDS011;1093;51.424;11.764;2024-01-30T02:38:37;12.33;;;9.43;;
2173;SDS011;1093;51.424;11.764;2024-01-30T02:41:16;13.87;;;8.80;;
2173;SDS011;1093;51.424;11.764;2024-01-30T02:43:50;13.83;;;10.57;;
2173;SDS011;1093;51.424;11.764;2024-01-30T02:52:27;11.60;;;8.67;;
2173;SDS011;1093;51.424;11.764;2024-01-30T02:55:24;16.37;;;9.40;;
2173;SDS011;1093;51.424;11.764;2024-01-30T02:58:00;13.10;;;8.80;;
2173;SDS011;1093;51.424;11.764;2024-01-30T03:00:41;12.30;;;8.77;;
2173;SDS011;1093;51.424;11.764;2024-01-30T03:03:07;11.33;;;8.50;;
2173;SDS011;1093;51.424;11.764;2024-01-30T03:05:37;13.13;;;8.27;;
2173;SDS011;1093;51.424;11.764;2024-01-30T03:08:22;11.30;;;7.63;;
2173;SDS011;1093;51.424;11.764;2024-01-30T03:10:51;12.53;;;8.20;;
2173;SDS011;1093;51.424;11.764;2024-01-30T03:13:21;13.00;;;9.33;;
2173;SDS011;1093;51.424;11.764;2024-01-30T03:15:52;16.70;;;9.47;;
2173;SDS011;1093;51.424;11.764;2024-01-30T03:18:20;13.07;;;8.73;;
2173;SDS011;1093;51.424;11.764;2024-01-30T03:20:51;19.17;;;9.20;;
2173;SDS011;1093;51.424;11.764;2024-01-30T03:23:18;13.20;;;10.03;;
2173;SDS011;1093;51.424;11.764;2024-01-30T03:25:53;13.37;;;9.37;;
2173;SDS011;1093;51.424;11.764;2024-01-30T03:28:43;13.27;;;9.10;;
2173;SDS011;1093;51.424;11.764;2024-01-30T03:31:38;12.67;;;9.40;;
2173;SDS011;1093;51.424;11.764;2024-01-30T03:34:48;15.20;;;8.90;;
2173;SDS011;1093;51.424;11.764;2024-01-30T03:37:33;13.20;;;8.90;;
2173;SDS011;1093;51.424;11.764;2024-01-30T03:40:23;13.60;;;9.00;;
2173;SDS011;1093;51.424;11.764;2024-01-30T03:43:08;12.10;;;9.20;;
2173;SDS011;1093;51.424;11.764;2024-01-30T03:45:38;14.20;;;8.57;;
2173;SDS011;1093;51.424;11.764;2024-01-30T03:48:22;18.47;;;9.73;;
2173;SDS011;1093;51.424;11.764;2024-01-30T03:50:54;12.70;;;8.23;;
2173;SDS011;1093;51.424;11.764;2024-01-30T03:53:27;12.87;;;9.40;;
2173;SDS011;1093;51.424;11.764;2024-01-30T03:55:53;17.90;;;9.27;;
2173;SDS011;1093;51.424;11.764;2024-01-30T03:58:39;10.40;;;8.07;;
2173;SDS011;1093;51.424;11.764;2024-01-30T04:01:13;11.57;;;8.40;;
2173;SDS011;1093;51.424;11.764;2024-01-30T04:03:47;15.30;;;9.90;;
2173;SDS011;1093;51.424;11.764;2024-01-30T04:06:22;13.70;;;9.40;;
2173;SDS011;1093;51.424;11.764;2024-01-30T04:11:51;16.03;;;8.83;;
2173;SDS011;1093;51.424;11.764;2024-01-30T04:14:32;13.60;;;8.50;;
2173;SDS011;1093;51.424;11.764;2024-01-30T04:17:03;15.30;;;9.50;;
2173;SDS011;1093;51.424;11.764;2024-01-30T04:19:52;15.30;;;9.80;;
2173;SDS011;1093;51.424;11.764;2024-01-30T04:22:55;12.87;;;8.67;;
2173;SDS011;1093;51.424;11.764;2024-01-30T04:25:35;15.20;;;10.70;;
2173;SDS011;1093;51.424;11.764;2024-01-30T04:28:24;12.60;;;8.70;;
2173;SDS011;1093;51.424;11.764;2024-01-30T04:30:54;13.70;;;9.73;;
2173;SDS011;1093;51.424;11.764;2024-01-30T04:33:26;15.50;;;10.57;;
2173;SDS011;1093;51.424;11.764;2024-01-30T04:35:56;14.13;;;8.63;;
2173;SDS011;1093;51.424;11.764;2024-01-30T04:38:23;15.27;;;9.53;;
2173;SDS011;1093;51.424;11.764;2024-01-30T04:40:56;14.20;;;8.80;;
2173;SDS011;1093;51.424;11.764;2024-01-30T04:43:26;16.23;;;10.00;;
2173;SDS011;1093;51.424;11.764;2024-01-30T04:46:09;13.00;;;9.33;;
2173;SDS011;1093;51.424;11.764;2024-01-30T04:48:46;15.13;;;8.80;;
2173;SDS011;1093;51.424;11.764;2024-01-30T04:51:18;15.83;;;10.50;;
2173;SDS011;1093;51.424;11.764;2024-01-30T04:54:02;12.03;;;9.60;;
2173;SDS011;1093;51.424;11.764;2024-01-30T04:56:31;12.80;;;10.40;;
2173;SDS011;1093;51.424;11.764;2024-01-30T04:59:07;14.97;;;10.30;;
2173;SDS011;1093;51.424;11.764;2024-01-30T05:01:40;13.03;;;10.20;;
2173;SDS011;1093;51.424;11.764;2024-01-30T05:04:13;13.50;;;11.07;;
2173;SDS011;1093;51.424;11.764;2024-01-30T05:06:46;12.37;;;9.40;;
2173;SDS011;1093;51.424;11.764;2024-01-30T05:09:26;17.10;;;10.87;;
2173;SDS011;1093;51.424;11.764;2024-01-30T05:11:59;15.63;;;10.77;;
2173;SDS011;1093;51.424;11.764;2024-01-30T05:14:32;17.20;;;11.17;;
2173;SDS011;1093;51.424;11.764;2024-01-30T05:17:40;12.87;;;10.00;;
2173;SDS011;1093;51.424;11.764;2024-01-30T05:20:24;17.60;;;11.33;;
2173;SDS011;1093;51.424;11.764;2024-01-30T05:23:26;14.30;;;11.30;;
2173;SDS011;1093;51.424;11.764;2024-01-30T05:26:17;14.73;;;11.13;;
2173;SDS011;1093;51.424;11.764;2024-01-30T05:29:04;15.90;;;10.47;;
2173;SDS011;1093;51.424;11.764;2024-01-30T05:33:50;19.53;;;12.60;;
2173;SDS011;1093;51.424;11.764;2024-01-30T05:35:29;18.07;;;12.63;;
2173;SDS011;1093;51.424;11.764;2024-01-30T05:38:01;18.80;;;13.07;;
2173;SDS011;1093;51.424;11.764;2024-01-30T05:40:47;17.97;;;11.90;;
2173;SDS011;1093;51.424;11.764;2024-01-30T05:43:39;19.20;;;13.00;;
2173;SDS011;1093;51.424;11.764;2024-01-30T05:46:14;21.40;;;15.57;;
2173;SDS011;1093;51.424;11.764;2024-01-30T05:48:51;17.97;;;13.40;;
2173;SDS011;1093;51.424;11.764;2024-01-30T05:51:18;26.00;;;13.80;;
2173;SDS011;1093;51.424;11.764;2024-01-30T05:53:55;22.50;;;12.47;;
2173;SDS011;1093;51.424;11.764;2024-01-30T05:56:37;19.23;;;13.17;;
2173;SDS011;1093;51.424;11.764;2024-01-30T05:59:04;24.50;;;13.37;;
2173;SDS011;1093;51.424;11.764;2024-01-30T06:01:34;17.50;;;12.80;;
2173;SDS011;1093;51.424;11.764;2024-01-30T06:04:04;20.80;;;13.53;;
2173;SDS011;1093;51.424;11.764;2024-01-30T06:06:40;23.43;;;13.80;;
2173;SDS011;1093;51.424;11.764;2024-01-30T06:09:15;14.43;;;9.90;;
2173;SDS011;1093;51.424;11.764;2024-01-30T06:11:49;14.47;;;9.73;;
2173;SDS011;1093;51.424;11.764;2024-01-30T06:14:22;14.57;;;8.87;;
2173;SDS011;1093;51.424;11.764;2024-01-30T06:16:52;14.23;;;9.47;;
2173;SDS011;1093;51.424;11.764;2024-01-30T06:19:28;13.40;;;9.17;;
2173;SDS011;1093;51.424;11.764;2024-01-30T06:22:00;14.00;;;9.00;;
2173;SDS011;1093;51.424;11.764;2024-01-30T06:24:36;13.30;;;9.53;;
2173;SDS011;1093;51.424;11.764;2024-01-30T06:27:23;13.30;;;8.83;;
2173;SDS011;1093;51.424;11.764;2024-01-30T06:29:53;13.27;;;9.07;;
2173;SDS011;1093;51.424;11.764;2024-01-30T06:32:36;9.30;;;7.30;;
2173;SDS011;1093;51.424;11.764;2024-01-30T06:35:38;12.00;;;8.47;;
2173;SDS011;1093;51.424;11.764;2024-01-30T06:41:40;12.70;;;8.20;;
2173;SDS011;1093;51.424;11.764;2024-01-30T06:44:16;10.00;;;8.30;;
2173;SDS011;1093;51.424;11.764;2024-01-30T06:46:50;14.57;;;8.50;;
2173;SDS011;1093;51.424;11.764;2024-01-30T06:49:49;11.43;;;8.30;;
2173;SDS011;1093;51.424;11.764;2024-01-30T06:52:16;13.10;;;7.37;;
2173;SDS011;1093;51.424;11.764;2024-01-30T06:54:47;13.63;;;8.37;;
2173;SDS011;1093;51.424;11.764;2024-01-30T06:57:15;10.87;;;8.30;;
2173;SDS011;1093;51.424;11.764;2024-01-30T06:59:52;16.83;;;9.20;;
2173;SDS011;1093;51.424;11.764;2024-01-30T07:02:33;14.03;;;9.23;;
2173;SDS011;1093;51.424;11.764;2024-01-30T07:05:09;15.77;;;11.77;;
2173;SDS011;1093;51.424;11.764;2024-01-30T07:09:01;10.60;;;9.33;;
2173;SDS011;1093;51.424;11.764;2024-01-30T07:10:44;13.90;;;8.80;;
2173;SDS011;1093;51.424;11.764;2024-01-30T07:13:34;15.57;;;8.73;;
2173;SDS011;1093;51.424;11.764;2024-01-30T07:19:07;15.17;;;8.80;;
2173;SDS011;1093;51.424;11.764;2024-01-30T07:22:15;16.10;;;9.50;;
2173;SDS011;1093;51.424;11.764;2024-01-30T07:24:42;15.53;;;7.67;;
2173;SDS011;1093;51.424;11.764;2024-01-30T07:27:23;17.43;;;8.90;;
2173;SDS011;1093;51.424;11.764;2024-01-30T07:30:08;12.60;;;9.60;;
2173;SDS011;1093;51.424;11.764;2024-01-30T07:32:42;14.60;;;8.67;;
2173;SDS011;1093;51.424;11.764;2024-01-30T07:35:14;10.40;;;8.07;;
2173;SDS011;1093;51.424;11.764;2024-01-30T07:37:53;9.43;;;8.00;;
2173;SDS011;1093;51.424;11.764;2024-01-30T07:40:34;11.23;;;8.53;;
2173;SDS011;1093;51.424;11.764;2024-01-30T07:43:02;11.90;;;7.93;;
2173;SDS011;1093;51.424;11.764;2024-01-30T07:45:35;12.73;;;9.30;;
2173;SDS011;1093;51.424;11.764;2024-01-30T07:48:22;10.37;;;8.80;;
2173;SDS011;1093;51.424;11.764;2024-01-30T07:50:53;12.63;;;8.90;;
2173;SDS011;1093;51.424;11.764;2024-01-30T07:53:22;12.50;;;9.33;;
2173;SDS011;1093;51.424;11.764;2024-01-30T07:56:00;16.07;;;9.30;;
2173;SDS011;1093;51.424;11.764;2024-01-30T07:58:39;19.93;;;9.20;;
2173;SDS011;1093;51.424;11.764;2024-01-30T08:01:18;11.57;;;8.17;;
2173;SDS011;1093;51.424;11.764;2024-01-30T08:04:25;11.60;;;9.43;;
2173;SDS011;1093;51.424;11.764;2024-01-30T08:06:52;12.33;;;7.87;;
2173;SDS011;1093;51.424;11.764;2024-01-30T08:09:22;11.80;;;8.40;;
2173;SDS011;1093;51.424;11.764;2024-01-30T08:12:12;12.80;;;8.70;;
2173;SDS011;1093;51.424;11.764;2024-01-30T08:14:41;14.70;;;9.20;;
2173;SDS011;1093;51.424;11.764;2024-01-30T08:17:24;13.57;;;8.97;;
2173;SDS011;1093;51.424;11.764;2024-01-30T08:19:59;11.57;;;9.67;;
2173;SDS011;1093;51.424;11.764;2024-01-30T08:22:37;15.40;;;10.93;;
2173;SDS011;1093;51.424;11.764;2024-01-30T08:25:08;18.33;;;10.50;;
2173;SDS011;1093;51.424;11.764;2024-01-30T08:27:43;16.90;;;9.00;;
2173;SDS011;1093;51.424;11.764;2024-01-30T08:30:14;14.87;;;9.60;;
2173;SDS011;1093;51.424;11.764;2024-01-30T08:32:41;21.87;;;13.03;;
2173;SDS011;1093;51.424;11.764;2024-01-30T08:35:14;23.37;;;13.10;;
2173;SDS011;1093;51.424;11.764;2024-01-30T08:37:43;18.60;;;12.90;;
2173;SDS011;1093;51.424;11.764;2024-01-30T08:40:20;19.60;;;11.60;;
2173;SDS011;1093;51.424;11.764;2024-01-30T08:43:06;27.70;;;12.53;;
2173;SDS011;1093;51.424;11.764;2024-01-30T08:45:53;23.23;;;12.83;;
2173;SDS011;1093;51.424;11.764;2024-01-30T08:48:33;24.30;;;13.33;;
2173;SDS011;1093;51.424;11.764;2024-01-30T08:53:58;21.03;;;12.30;;
2173;SDS011;1093;51.424;11.764;2024-01-30T08:56:50;10.77;;;8.60;;
2173;SDS011;1093;51.424;11.764;2024-01-30T09:02:18;15.70;;;9.07;;
2173;SDS011;1093;51.424;11.764;2024-01-30T09:07:40;21.03;;;8.20;;
2173;SDS011;1093;51.424;11.764;2024-01-30T09:10:10;14.60;;;8.47;;
2173;SDS011;1093;51.424;11.764;2024-01-30T09:12:45;12.70;;;8.53;;
2173;SDS011;1093;51.424;11.764;2024-01-30T09:15:26;25.73;;;7.33;;
2173;SDS011;1093;51.424;11.764;2024-01-30T09:17:59;13.03;;;10.43;;
2173;SDS011;1093;51.424;11.764;2024-01-30T09:20:35;27.80;;;13.47;;
2173;SDS011;1093;51.424;11.764;2024-01-30T09:23:17;29.20;;;15.53;;
2173;SDS011;1093;51.424;11.764;2024-01-30T09:25:52;13.77;;;8.30;;
2173;SDS011;1093;51.424;11.764;2024-01-30T09:28:39;11.83;;;7.60;;
2173;SDS011;1093;51.424;11.764;2024-01-30T09:31:28;13.00;;;7.57;;
2173;SDS011;1093;51.424;11.764;2024-01-30T09:34:13;16.87;;;7.40;;
2173;SDS011;1093;51.424;11.764;2024-01-30T09:36:59;11.37;;;7.10;;
2173;SDS011;1093;51.424;11.764;2024-01-30T09:39:53;9.20;;;6.53;;
2173;SDS011;1093;51.424;11.764;2024-01-30T09:45:41;11.50;;;7.50;;
2173;SDS011;1093;51.424;11.764;2024-01-30T09:48:29;12.40;;;7.70;;
2173;SDS011;1093;51.424;11.764;2024-01-30T09:51:34;9.10;;;7.73;;
2173;SDS011;1093;51.424;11.764;2024-01-30T09:54:10;15.97;;;6.67;;
2173;SDS011;1093;51.424;11.764;2024-01-30T10:00:14;8.20;;;6.90;;
2173;SDS011;1093;51.424;11.764;2024-01-30T10:02:55;10.07;;;7.73;;
2173;SDS011;1093;51.424;11.764;2024-01-30T10:05:25;16.73;;;7.23;;
2173;SDS011;1093;51.424;11.764;2024-01-30T10:14:11;8.90;;;7.10;;
2173;SDS011;1093;51.424;11.764;2024-01-30T10:16:45;9.57;;;6.40;;
2173;SDS011;1093;51.424;11.764;2024-01-30T10:19:19;13.00;;;7.77;;
2173;SDS011;1093;51.424;11.764;2024-01-30T10:22:10;10.17;;;7.80;;
2173;SDS011;1093;51.424;11.764;2024-01-30T10:24:56;17.97;;;7.60;;
2173;SDS011;1093;51.424;11.764;2024-01-30T10:27:45;9.40;;;7.07;;
2173;SDS011;1093;51.424;11.764;2024-01-30T10:30:14;7.83;;;6.90;;
2173;SDS011;1093;51.424;11.764;2024-01-30T10:32:42;11.17;;;7.03;;
2173;SDS011;1093;51.424;11.764;2024-01-30T10:35:18;12.33;;;7.50;;
2173;SDS011;1093;51.424;11.764;2024-01-30T10:37:57;8.50;;;7.67;;
2173;SDS011;1093;51.424;11.764;2024-01-30T10:40:48;9.47;;;7.20;;
2173;SDS011;1093;51.424;11.764;2024-01-30T10:43:22;10.20;;;7.57;;
2173;SDS011;1093;51.424;11.764;2024-01-30T10:45:52;9.90;;;6.70;;
2173;SDS011;1093;51.424;11.764;2024-01-30T10:48:25;9.77;;;8.03;;
2173;SDS011;1093;51.424;11.764;2024-01-30T10:51:00;10.30;;;7.93;;
2173;SDS011;1093;51.424;11.764;2024-01-30T10:53:46;9.37;;;7.47;;
2173;SDS011;1093;51.424;11.764;2024-01-30T10:56:21;8.67;;;7.23;;
2173;SDS011;1093;51.424;11.764;2024-01-30T10:58:58;11.37;;;7.37;;
2173;SDS011;1093;51.424;11.764;2024-01-30T11:04:41;10.97;;;8.50;;
2173;SDS011;1093;51.424;11.764;2024-01-30T11:07:29;8.90;;;7.33;;
2173;SDS011;1093;51.424;11.764;2024-01-30T11:10:25;11.33;;;7.83;;
2173;SDS011;1093;51.424;11.764;2024-01-30T11:13:18;9.57;;;7.60;;
2173;SDS011;1093;51.424;11.764;2024-01-30T11:15:55;12.40;;;8.10;;
2173;SDS011;1093;51.424;11.764;2024-01-30T11:18:38;10.30;;;6.40;;
2173;SDS011;1093;51.424;11.764;2024-01-30T11:21:12;13.73;;;8.23;;
2173;SDS011;1093;51.424;11.764;2024-01-30T11:23:51;11.97;;;8.50;;
2173;SDS011;1093;51.424;11.764;2024-01-30T11:26:30;12.90;;;7.93;;
2173;SDS011;1093;51.424;11.764;2024-01-30T11:28:58;11.00;;;7.93;;
2173;SDS011;1093;51.424;11.764;2024-01-30T11:31:32;11.67;;;7.53;;
2173;SDS011;1093;51.424;11.764;2024-01-30T11:34:17;9.37;;;7.20;;
2173;SDS011;1093;51.424;11.764;2024-01-30T11:36:52;10.30;;;7.23;;
2173;SDS011;1093;51.424;11.764;2024-01-30T11:39:37;11.30;;;7.87;;
2173;SDS011;1093;51.424;11.764;2024-01-30T11:42:09;11.93;;;8.37;;
2173;SDS011;1093;51.424;11.764;2024-01-30T11:44:48;10.03;;;7.00;;
2173;SDS011;1093;51.424;11.764;2024-01-30T11:47:29;13.07;;;7.40;;
2173;SDS011;1093;51.424;11.764;2024-01-30T11:50:35;11.50;;;9.87;;
2173;SDS011;1093;51.424;11.764;2024-01-30T11:53:09;10.33;;;8.03;;
2173;SDS011;1093;51.424;11.764;2024-01-30T11:55:43;10.73;;;7.60;;
2173;SDS011;1093;51.424;11.764;2024-01-30T11:58:24;10.03;;;7.67;;
2173;SDS011;1093;51.424;11.764;2024-01-30T12:01:11;9.10;;;7.70;;
2173;SDS011;1093;51.424;11.764;2024-01-30T12:03:40;11.50;;;7.90;;
2173;SDS011;1093;51.424;11.764;2024-01-30T12:06:12;11.17;;;7.70;;
2173;SDS011;1093;51.424;11.764;2024-01-30T12:08:42;10.73;;;7.77;;
2173;SDS011;1093;51.424;11.764;2024-01-30T12:11:09;9.37;;;7.00;;
2173;SDS011;1093;51.424;11.764;2024-01-30T12:13:43;12.30;;;8.20;;
2173;SDS011;1093;51.424;11.764;2024-01-30T12:16:18;9.50;;;7.23;;
2173;SDS011;1093;51.424;11.764;2024-01-30T12:18:47;10.83;;;8.23;;
2173;SDS011;1093;51.424;11.764;2024-01-30T12:21:28;9.30;;;8.10;;
2173;SDS011;1093;51.424;11.764;2024-01-30T12:23:56;10.43;;;7.13;;
2173;SDS011;1093;51.424;11.764;2024-01-30T12:26:23;9.03;;;7.60;;
2173;SDS011;1093;51.424;11.764;2024-01-30T12:28:55;10.10;;;7.27;;
2173;SDS011;1093;51.424;11.764;2024-01-30T12:31:41;12.20;;;8.50;;
2173;SDS011;1093;51.424;11.764;2024-01-30T12:34:08;11.47;;;7.60;;
2173;SDS011;1093;51.424;11.764;2024-01-30T12:36:42;10.43;;;7.63;;
2173;SDS011;1093;51.424;11.764;2024-01-30T12:39:10;8.00;;;6.80;;
2173;SDS011;1093;51.424;11.764;2024-01-30T12:41:40;9.50;;;6.97;;
2173;SDS011;1093;51.424;11.764;2024-01-30T12:44:09;15.00;;;9.13;;
2173;SDS011;1093;51.424;11.764;2024-01-30T12:46:42;11.97;;;8.83;;
2173;SDS011;1093;51.424;11.764;2024-01-30T12:49:09;9.90;;;7.47;;
2173;SDS011;1093;51.424;11.764;2024-01-30T12:51:39;12.37;;;7.20;;
2173;SDS011;1093;51.424;11.764;2024-01-30T12:54:19;9.43;;;7.47;;
2173;SDS011;1093;51.424;11.764;2024-01-30T12:57:00;8.80;;;7.33;;
2173;SDS011;1093;51.424;11.764;2024-01-30T12:59:29;10.40;;;7.57;;
2173;SDS011;1093;51.424;11.764;2024-01-30T13:01:59;9.53;;;8.03;;
2173;SDS011;1093;51.424;11.764;2024-01-30T13:04:29;11.73;;;6.53;;
2173;SDS011;1093;51.424;11.764;2024-01-30T13:07:08;12.83;;;8.60;;
2173;SDS011;1093;51.424;11.764;2024-01-30T13:09:43;11.33;;;8.37;;
2173;SDS011;1093;51.424;11.764;2024-01-30T13:12:11;11.20;;;8.53;;
2173;SDS011;1093;51.424;11.764;2024-01-30T13:14:40;10.70;;;7.00;;
2173;SDS011;1093;51.424;11.764;2024-01-30T13:17:09;9.50;;;7.90;;
2173;SDS011;1093;51.424;11.764;2024-01-30T13:19:39;8.77;;;7.50;;
2173;SDS011;1093;51.424;11.764;2024-01-30T13:22:23;10.07;;;8.07;;
2173;SDS011;1093;51.424;11.764;2024-01-30T13:25:08;11.80;;;8.23;;
2173;SDS011;1093;51.424;11.764;2024-01-30T13:27:39;12.63;;;8.03;;
2173;SDS011;1093;51.424;11.764;2024-01-30T13:30:06;13.70;;;7.80;;
2173;SDS011;1093;51.424;11.764;2024-01-30T13:32:41;11.60;;;8.73;;
2173;SDS011;1093;51.424;11.764;2024-01-30T13:38:46;10.90;;;8.07;;
2173;SDS011;1093;51.424;11.764;2024-01-30T13:41:16;11.00;;;7.77;;
2173;SDS011;1093;51.424;11.764;2024-01-30T13:43:50;9.60;;;8.10;;
2173;SDS011;1093;51.424;11.764;2024-01-30T13:46:20;13.93;;;8.23;;
2173;SDS011;1093;51.424;11.764;2024-01-30T13:48:47;14.20;;;8.20;;
2173;SDS011;1093;51.424;11.764;2024-01-30T13:51:22;9.50;;;7.90;;
2173;SDS011;1093;51.424;11.764;2024-01-30T13:53:52;11.33;;;8.10;;
2173;SDS011;1093;51.424;11.764;2024-01-30T13:56:22;11.23;;;9.60;;
2173;SDS011;1093;51.424;11.764;2024-01-30T13:58:49;12.80;;;9.30;;
2173;SDS011;1093;51.424;11.764;2024-01-30T14:01:26;13.70;;;9.37;;
2173;SDS011;1093;51.424;11.764;2024-01-30T14:03:56;10.57;;;8.90;;
2173;SDS011;1093;51.424;11.764;2024-01-30T14:06:36;11.00;;;8.63;;
2173;SDS011;1093;51.424;11.764;2024-01-30T14:09:10;16.80;;;11.30;;
2173;SDS011;1093;51.424;11.764;2024-01-30T14:11:41;10.47;;;9.10;;
2173;SDS011;1093;51.424;11.764;2024-01-30T14:14:14;14.50;;;9.80;;
2173;SDS011;1093;51.424;11.764;2024-01-30T14:16:45;11.50;;;8.60;;
2173;SDS011;1093;51.424;11.764;2024-01-30T14:19:11;16.10;;;10.00;;
2173;SDS011;1093;51.424;11.764;2024-01-30T14:21:46;13.00;;;9.07;;
2173;SDS011;1093;51.424;11.764;2024-01-30T14:24:25;15.70;;;10.60;;
2173;SDS011;1093;51.424;11.764;2024-01-30T14:26:57;18.13;;;11.10;;
2173;SDS011;1093;51.424;11.764;2024-01-30T14:29:37;14.17;;;9.70;;
2173;SDS011;1093;51.424;11.764;2024-01-30T14:32:21;12.80;;;9.77;;
2173;SDS011;1093;51.424;11.764;2024-01-30T14:34:51;13.70;;;10.63;;
2173;SDS011;1093;51.424;11.764;2024-01-30T14:37:21;16.07;;;9.87;;
2173;SDS011;1093;51.424;11.764;2024-01-30T14:40:01;16.00;;;10.07;;
2173;SDS011;1093;51.424;11.764;2024-01-30T14:42:36;12.10;;;10.00;;
2173;SDS011;1093;51.424;11.764;2024-01-30T14:45:07;13.70;;;11.10;;
2173;SDS011;1093;51.424;11.764;2024-01-30T14:47:56;12.30;;;10.33;;
2173;SDS011;1093;51.424;11.764;2024-01-30T14:50:41;13.87;;;9.70;;
2173;SDS011;1093;51.424;11.764;2024-01-30T14:53:13;12.07;;;9.97;;
2173;SDS011;1093;51.424;11.764;2024-01-30T14:55:47;30.63;;;14.90;;
2173;SDS011;1093;51.424;11.764;2024-01-30T14:58:17;21.00;;;15.27;;
2173;SDS011;1093;51.424;11.764;2024-01-30T15:00:43;31.53;;;20.57;;
2173;SDS011;1093;51.424;11.764;2024-01-30T15:03:10;23.80;;;16.63;;
2173;SDS011;1093;51.424;11.764;2024-01-30T15:05:37;22.53;;;13.07;;
2173;SDS011;1093;51.424;11.764;2024-01-30T15:08:13;15.70;;;10.97;;
2173;SDS011;1093;51.424;11.764;2024-01-30T15:10:40;15.17;;;10.60;;
2173;SDS011;1093;51.424;11.764;2024-01-30T15:13:13;14.80;;;9.87;;
2173;SDS011;1093;51.424;11.764;2024-01-30T15:15:42;10.77;;;9.10;;
2173;SDS011;1093;51.424;11.764;2024-01-30T15:18:13;11.93;;;10.23;;
2173;SDS011;1093;51.424;11.764;2024-01-30T15:20:40;10.70;;;8.87;;
2173;SDS011;1093;51.424;11.764;2024-01-30T15:23:12;17.10;;;10.17;;
2173;SDS011;1093;51.424;11.764;2024-01-30T15:25:41;16.43;;;9.97;;
2173;SDS011;1093;51.424;11.764;2024-01-30T15:31:11;10.90;;;9.23;;
2173;SDS011;1093;51.424;11.764;2024-01-30T15:33:40;11.77;;;10.60;;
2173;SDS011;1093;51.424;11.764;2024-01-30T15:36:07;14.77;;;10.20;;
2173;SDS011;1093;51.424;11.764;2024-01-30T15:38:46;14.27;;;10.10;;
2173;SDS011;1093;51.424;11.764;2024-01-30T15:41:18;13.27;;;10.90;;
2173;SDS011;1093;51.424;11.764;2024-01-30T15:43:52;14.43;;;9.90;;
2173;SDS011;1093;51.424;11.764;2024-01-30T15:46:23;15.77;;;10.40;;
2173;SDS011;1093;51.424;11.764;2024-01-30T15:48:50;15.03;;;11.40;;
2173;SDS011;1093;51.424;11.764;2024-01-30T15:51:20;14.23;;;9.77;;
2173;SDS011;1093;51.424;11.764;2024-01-30T15:53:50;12.93;;;10.00;;
2173;SDS011;1093;51.424;11.764;2024-01-30T15:56:20;13.13;;;9.83;;
2173;SDS011;1093;51.424;11.764;2024-01-30T15:58:53;15.30;;;10.80;;
2173;SDS011;1093;51.424;11.764;2024-01-30T16:01:22;17.87;;;12.20;;
2173;SDS011;1093;51.424;11.764;2024-01-30T16:03:51;17.47;;;11.50;;
2173;SDS011;1093;51.424;11.764;2024-01-30T16:06:21;12.83;;;10.37;;
2173;SDS011;1093;51.424;11.764;2024-01-30T16:08:51;14.33;;;11.50;;
2173;SDS011;1093;51.424;11.764;2024-01-30T16:11:21;15.90;;;10.80;;
2173;SDS011;1093;51.424;11.764;2024-01-30T16:14:01;14.73;;;11.60;;
2173;SDS011;1093;51.424;11.764;2024-01-30T16:16:30;13.17;;;10.97;;
2173;SDS011;1093;51.424;11.764;2024-01-30T16:19:03;16.60;;;9.83;;
2173;SDS011;1093;51.424;11.764;2024-01-30T16:21:30;14.60;;;11.30;;
2173;SDS011;1093;51.424;11.764;2024-01-30T16:23:57;17.53;;;13.47;;
2173;SDS011;1093;51.424;11.764;2024-01-30T16:26:29;33.60;;;21.03;;
2173;SDS011;1093;51.424;11.764;2024-01-30T16:29:05;31.03;;;20.33;;
2173;SDS011;1093;51.424;11.764;2024-01-30T16:31:32;26.80;;;18.50;;